sensor_id;sensor_type;location;lat;lon;timestamp;temperature;humidity
65864;SHT30;52639;51.180;20.460;2024-02-21T00:00:06;4.06;94.70
65864;SHT30;52639;51.180;20.460;2024-02-21T00:04:08;4.03;94.81
65864;SHT30;52639;51.180;20.460;2024-02-21T00:08:12;3.98;94.72
65864;SHT30;52639;51.180;20.460;2024-02-21T00:12:14;3.96;94.62
65864;SHT30;52639;51.180;20.460;2024-02-21T00:16:16;3.92;94.45
65864;SHT30;52639;51.180;20.460;2024-02-21T00:20:18;3.86;94.64
65864;SHT30;52639;51.180;20.460;2024-02-21T00:24:21;3.88;94.68
65864;SHT30;52639;51.180;20.460;2024-02-21T00:28:23;3.85;94.71
65864;SHT30;52639;51.180;20.460;2024-02-21T00:32:25;3.81;94.71
65864;SHT30;52639;51.180;20.460;2024-02-21T00:36:38;3.84;94.83
65864;SHT30;52639;51.180;20.460;2024-02-21T00:45:38;3.82;95.01
65864;SHT30;52639;51.180;20.460;2024-02-21T00:49:40;3.77;94.91
65864;SHT30;52639;51.180;20.460;2024-02-21T00:53:42;3.75;95.01
65864;SHT30;52639;51.180;20.460;2024-02-21T00:57:44;3.64;94.97
65864;SHT30;52639;51.180;20.460;2024-02-21T01:01:47;3.63;95.10
65864;SHT30;52639;51.180;20.460;2024-02-21T01:05:49;3.60;94.99
65864;SHT30;52639;51.180;20.460;2024-02-21T01:09:51;3.55;95.22
65864;SHT30;52639;51.180;20.460;2024-02-21T01:19:04;3.64;95.40
65864;SHT30;52639;51.180;20.460;2024-02-21T01:23:06;3.67;95.57
65864;SHT30;52639;51.180;20.460;2024-02-21T01:27:08;3.67;95.30
65864;SHT30;52639;51.180;20.460;2024-02-21T01:31:10;3.60;95.31
65864;SHT30;52639;51.180;20.460;2024-02-21T01:35:15;3.61;95.54
65864;SHT30;52639;51.180;20.460;2024-02-21T01:39:17;3.65;95.54
65864;SHT30;52639;51.180;20.460;2024-02-21T01:43:19;3.61;95.58
65864;SHT30;52639;51.180;20.460;2024-02-21T01:47:21;3.63;95.77
65864;SHT30;52639;51.180;20.460;2024-02-21T01:51:24;3.63;95.83
65864;SHT30;52639;51.180;20.460;2024-02-21T01:55:27;3.64;95.87
65864;SHT30;52639;51.180;20.460;2024-02-21T01:59:29;3.70;95.81
65864;SHT30;52639;51.180;20.460;2024-02-21T02:03:31;3.75;96.00
65864;SHT30;52639;51.180;20.460;2024-02-21T02:07:34;3.74;96.02
65864;SHT30;52639;51.180;20.460;2024-02-21T02:11:38;3.77;96.06
65864;SHT30;52639;51.180;20.460;2024-02-21T02:15:40;3.78;96.05
65864;SHT30;52639;51.180;20.460;2024-02-21T02:19:43;3.82;95.98
65864;SHT30;52639;51.180;20.460;2024-02-21T02:23:46;3.88;96.07
65864;SHT30;52639;51.180;20.460;2024-02-21T02:27:48;3.89;96.31
65864;SHT30;52639;51.180;20.460;2024-02-21T02:31:50;3.94;96.14
65864;SHT30;52639;51.180;20.460;2024-02-21T02:35:51;3.99;96.23
65864;SHT30;52639;51.180;20.460;2024-02-21T02:39:55;4.02;96.20
65864;SHT30;52639;51.180;20.460;2024-02-21T02:44:02;4.02;96.15
65864;SHT30;52639;51.180;20.460;2024-02-21T02:48:32;4.02;96.10
65864;SHT30;52639;51.180;20.460;2024-02-21T02:52:34;4.03;96.11
65864;SHT30;52639;51.180;20.460;2024-02-21T02:56:37;4.05;95.93
65864;SHT30;52639;51.180;20.460;2024-02-21T03:00:39;4.02;96.01
65864;SHT30;52639;51.180;20.460;2024-02-21T03:04:41;4.02;96.00
65864;SHT30;52639;51.180;20.460;2024-02-21T03:08:43;3.98;95.81
65864;SHT30;52639;51.180;20.460;2024-02-21T03:12:46;3.94;95.93
65864;SHT30;52639;51.180;20.460;2024-02-21T03:16:51;3.94;96.14
65864;SHT30;52639;51.180;20.460;2024-02-21T03:21:00;3.95;96.18
65864;SHT30;52639;51.180;20.460;2024-02-21T03:25:02;3.98;96.27
65864;SHT30;52639;51.180;20.460;2024-02-21T03:29:06;3.99;96.22
65864;SHT30;52639;51.180;20.460;2024-02-21T03:33:08;3.98;96.17
65864;SHT30;52639;51.180;20.460;2024-02-21T03:37:10;4.02;96.15
65864;SHT30;52639;51.180;20.460;2024-02-21T03:41:27;4.03;96.17
65864;SHT30;52639;51.180;20.460;2024-02-21T03:45:31;4.05;96.23
65864;SHT30;52639;51.180;20.460;2024-02-21T03:49:32;4.03;96.35
65864;SHT30;52639;51.180;20.460;2024-02-21T03:53:34;4.03;96.38
65864;SHT30;52639;51.180;20.460;2024-02-21T03:57:36;4.05;96.50
65864;SHT30;52639;51.180;20.460;2024-02-21T04:01:40;4.06;96.52
65864;SHT30;52639;51.180;20.460;2024-02-21T04:05:42;4.08;96.49
65864;SHT30;52639;51.180;20.460;2024-02-21T04:09:44;4.03;96.43
65864;SHT30;52639;51.180;20.460;2024-02-21T04:13:45;4.05;96.36
65864;SHT30;52639;51.180;20.460;2024-02-21T04:17:50;4.02;96.56
65864;SHT30;52639;51.180;20.460;2024-02-21T04:22:10;4.05;96.45
65864;SHT30;52639;51.180;20.460;2024-02-21T04:30:41;4.06;96.70
65864;SHT30;52639;51.180;20.460;2024-02-21T04:34:45;4.09;96.69
65864;SHT30;52639;51.180;20.460;2024-02-21T04:38:46;4.10;96.75
65864;SHT30;52639;51.180;20.460;2024-02-21T04:42:49;4.10;96.67
65864;SHT30;52639;51.180;20.460;2024-02-21T04:46:51;4.12;96.80
65864;SHT30;52639;51.180;20.460;2024-02-21T04:55:26;4.15;96.65
65864;SHT30;52639;51.180;20.460;2024-02-21T04:59:28;4.15;96.64
65864;SHT30;52639;51.180;20.460;2024-02-21T05:03:30;4.13;96.78
65864;SHT30;52639;51.180;20.460;2024-02-21T05:07:32;4.15;96.96
65864;SHT30;52639;51.180;20.460;2024-02-21T05:11:35;4.15;96.94
65864;SHT30;52639;51.180;20.460;2024-02-21T05:15:38;4.19;96.83
65864;SHT30;52639;51.180;20.460;2024-02-21T05:19:40;4.20;96.88
65864;SHT30;52639;51.180;20.460;2024-02-21T05:23:42;4.20;96.85
65864;SHT30;52639;51.180;20.460;2024-02-21T05:27:45;4.20;96.89
65864;SHT30;52639;51.180;20.460;2024-02-21T05:31:55;4.22;96.78
65864;SHT30;52639;51.180;20.460;2024-02-21T05:35:57;4.22;96.76
65864;SHT30;52639;51.180;20.460;2024-02-21T05:39:59;4.22;96.90
65864;SHT30;52639;51.180;20.460;2024-02-21T05:44:03;4.25;96.87
65864;SHT30;52639;51.180;20.460;2024-02-21T05:48:05;4.25;96.96
65864;SHT30;52639;51.180;20.460;2024-02-21T05:52:07;4.25;96.85
65864;SHT30;52639;51.180;20.460;2024-02-21T05:56:09;4.29;96.77
65864;SHT30;52639;51.180;20.460;2024-02-21T06:00:13;4.35;96.82
65864;SHT30;52639;51.180;20.460;2024-02-21T06:04:15;4.36;96.83
65864;SHT30;52639;51.180;20.460;2024-02-21T06:08:17;4.39;96.64
65864;SHT30;52639;51.180;20.460;2024-02-21T06:12:19;4.48;96.77
65864;SHT30;52639;51.180;20.460;2024-02-21T06:16:22;4.48;96.65
65864;SHT30;52639;51.180;20.460;2024-02-21T06:20:24;4.53;96.57
65864;SHT30;52639;51.180;20.460;2024-02-21T06:24:26;4.57;96.65
65864;SHT30;52639;51.180;20.460;2024-02-21T06:28:28;4.62;96.64
65864;SHT30;52639;51.180;20.460;2024-02-21T06:32:31;4.67;96.60
65864;SHT30;52639;51.180;20.460;2024-02-21T06:36:33;4.73;96.72
65864;SHT30;52639;51.180;20.460;2024-02-21T06:40:35;4.80;96.41
65864;SHT30;52639;51.180;20.460;2024-02-21T06:44:40;4.91;96.50
65864;SHT30;52639;51.180;20.460;2024-02-21T06:48:44;5.04;96.48
65864;SHT30;52639;51.180;20.460;2024-02-21T06:52:45;5.17;96.26
65864;SHT30;52639;51.180;20.460;2024-02-21T06:56:48;5.41;96.51
65864;SHT30;52639;51.180;20.460;2024-02-21T07:00:50;5.66;96.47
65864;SHT30;52639;51.180;20.460;2024-02-21T07:04:53;5.82;95.99
65864;SHT30;52639;51.180;20.460;2024-02-21T07:08:55;5.89;95.75
65864;SHT30;52639;51.180;20.460;2024-02-21T07:12:57;5.89;95.37
65864;SHT30;52639;51.180;20.460;2024-02-21T07:16:59;5.85;95.46
65864;SHT30;52639;51.180;20.460;2024-02-21T07:25:25;5.73;95.46
65864;SHT30;52639;51.180;20.460;2024-02-21T07:29:27;5.79;95.62
65864;SHT30;52639;51.180;20.460;2024-02-21T07:33:29;5.75;95.44
65864;SHT30;52639;51.180;20.460;2024-02-21T07:37:31;5.78;95.19
65864;SHT30;52639;51.180;20.460;2024-02-21T07:41:35;5.95;95.37
65864;SHT30;52639;51.180;20.460;2024-02-21T07:45:41;6.16;95.10
65864;SHT30;52639;51.180;20.460;2024-02-21T07:49:43;6.37;95.12
65864;SHT30;52639;51.180;20.460;2024-02-21T07:53:45;6.53;94.53
65864;SHT30;52639;51.180;20.460;2024-02-21T07:57:49;6.85;94.26
65864;SHT30;52639;51.180;20.460;2024-02-21T08:01:51;7.33;94.25
65864;SHT30;52639;51.180;20.460;2024-02-21T08:05:53;7.52;92.99
65864;SHT30;52639;51.180;20.460;2024-02-21T08:09:55;7.62;92.12
65864;SHT30;52639;51.180;20.460;2024-02-21T08:13:58;7.45;92.71
65864;SHT30;52639;51.180;20.460;2024-02-21T08:18:01;7.28;92.63
65864;SHT30;52639;51.180;20.460;2024-02-21T08:22:04;7.01;93.19
65864;SHT30;52639;51.180;20.460;2024-02-21T08:26:25;7.08;93.17
65864;SHT30;52639;51.180;20.460;2024-02-21T08:30:30;7.29;92.80
65864;SHT30;52639;51.180;20.460;2024-02-21T08:34:35;7.45;93.09
65864;SHT30;52639;51.180;20.460;2024-02-21T08:38:37;7.55;92.52
65864;SHT30;52639;51.180;20.460;2024-02-21T08:42:38;7.85;92.40
65864;SHT30;52639;51.180;20.460;2024-02-21T08:46:42;7.62;92.07
65864;SHT30;52639;51.180;20.460;2024-02-21T08:50:44;7.80;91.82
65864;SHT30;52639;51.180;20.460;2024-02-21T08:54:46;7.62;91.31
65864;SHT30;52639;51.180;20.460;2024-02-21T08:58:48;7.32;91.56
65864;SHT30;52639;51.180;20.460;2024-02-21T09:02:51;7.05;92.72
65864;SHT30;52639;51.180;20.460;2024-02-21T09:06:53;7.01;92.74
65864;SHT30;52639;51.180;20.460;2024-02-21T09:10:55;6.90;92.80
65864;SHT30;52639;51.180;20.460;2024-02-21T09:14:57;6.87;92.77
65864;SHT30;52639;51.180;20.460;2024-02-21T09:19:00;7.31;92.88
65864;SHT30;52639;51.180;20.460;2024-02-21T09:23:03;7.97;91.99
65864;SHT30;52639;51.180;20.460;2024-02-21T09:27:19;7.98;92.05
65864;SHT30;52639;51.180;20.460;2024-02-21T09:31:20;8.08;91.77
65864;SHT30;52639;51.180;20.460;2024-02-21T09:35:24;7.73;91.17
65864;SHT30;52639;51.180;20.460;2024-02-21T09:39:27;7.53;92.43
65864;SHT30;52639;51.180;20.460;2024-02-21T09:43:29;7.63;91.59
65864;SHT30;52639;51.180;20.460;2024-02-21T09:47:33;7.65;91.36
65864;SHT30;52639;51.180;20.460;2024-02-21T09:56:07;7.91;89.84
65864;SHT30;52639;51.180;20.460;2024-02-21T10:00:10;7.98;90.43
65864;SHT30;52639;51.180;20.460;2024-02-21T10:04:13;8.31;90.23
65864;SHT30;52639;51.180;20.460;2024-02-21T10:08:15;8.57;88.87
65864;SHT30;52639;51.180;20.460;2024-02-21T10:12:18;9.01;89.34
65864;SHT30;52639;51.180;20.460;2024-02-21T10:16:20;9.57;88.55
65864;SHT30;52639;51.180;20.460;2024-02-21T10:20:22;10.11;85.60
65864;SHT30;52639;51.180;20.460;2024-02-21T10:24:39;9.91;84.37
65864;SHT30;52639;51.180;20.460;2024-02-21T10:28:44;9.39;89.01
65864;SHT30;52639;51.180;20.460;2024-02-21T10:32:50;9.27;88.33
65864;SHT30;52639;51.180;20.460;2024-02-21T10:36:59;9.08;86.97
65864;SHT30;52639;51.180;20.460;2024-02-21T10:41:00;9.15;88.03
65864;SHT30;52639;51.180;20.460;2024-02-21T10:45:06;9.25;88.63
65864;SHT30;52639;51.180;20.460;2024-02-21T10:49:10;9.30;87.48
65864;SHT30;52639;51.180;20.460;2024-02-21T10:53:14;9.37;86.71
65864;SHT30;52639;51.180;20.460;2024-02-21T10:57:19;9.47;86.12
65864;SHT30;52639;51.180;20.460;2024-02-21T11:01:22;9.04;86.40
65864;SHT30;52639;51.180;20.460;2024-02-21T11:05:27;8.93;87.48
65864;SHT30;52639;51.180;20.460;2024-02-21T11:09:30;8.85;87.33
65864;SHT30;52639;51.180;20.460;2024-02-21T11:13:34;8.52;88.11
65864;SHT30;52639;51.180;20.460;2024-02-21T11:17:38;8.11;88.14
65864;SHT30;52639;51.180;20.460;2024-02-21T11:21:42;7.94;88.81
65864;SHT30;52639;51.180;20.460;2024-02-21T11:25:45;7.93;89.36
65864;SHT30;52639;51.180;20.460;2024-02-21T11:29:49;7.97;88.51
65864;SHT30;52639;51.180;20.460;2024-02-21T11:33:53;8.36;88.03
65864;SHT30;52639;51.180;20.460;2024-02-21T11:37:57;8.85;87.79
65864;SHT30;52639;51.180;20.460;2024-02-21T11:42:08;9.01;88.19
65864;SHT30;52639;51.180;20.460;2024-02-21T11:46:11;9.05;87.59
65864;SHT30;52639;51.180;20.460;2024-02-21T11:50:14;9.09;88.15
65864;SHT30;52639;51.180;20.460;2024-02-21T11:54:17;9.01;86.69
65864;SHT30;52639;51.180;20.460;2024-02-21T11:58:19;8.89;86.78
65864;SHT30;52639;51.180;20.460;2024-02-21T12:02:20;8.68;87.61
65864;SHT30;52639;51.180;20.460;2024-02-21T12:06:24;8.71;88.57
65864;SHT30;52639;51.180;20.460;2024-02-21T12:10:26;8.61;87.84
65864;SHT30;52639;51.180;20.460;2024-02-21T12:14:28;8.48;88.61
65864;SHT30;52639;51.180;20.460;2024-02-21T12:18:30;8.50;88.97
65864;SHT30;52639;51.180;20.460;2024-02-21T12:22:33;8.51;88.77
65864;SHT30;52639;51.180;20.460;2024-02-21T12:26:36;8.48;89.64
65864;SHT30;52639;51.180;20.460;2024-02-21T12:30:38;8.72;89.26
65864;SHT30;52639;51.180;20.460;2024-02-21T12:34:41;8.61;88.89
65864;SHT30;52639;51.180;20.460;2024-02-21T12:38:58;8.30;89.41
65864;SHT30;52639;51.180;20.460;2024-02-21T12:43:00;8.40;90.04
65864;SHT30;52639;51.180;20.460;2024-02-21T12:47:11;8.61;90.52
65864;SHT30;52639;51.180;20.460;2024-02-21T12:51:13;8.71;89.34
65864;SHT30;52639;51.180;20.460;2024-02-21T12:55:17;8.95;90.02
65864;SHT30;52639;51.180;20.460;2024-02-21T12:59:26;9.11;89.64
65864;SHT30;52639;51.180;20.460;2024-02-21T13:03:28;9.14;89.20
65864;SHT30;52639;51.180;20.460;2024-02-21T13:07:31;9.26;89.16
65864;SHT30;52639;51.180;20.460;2024-02-21T13:11:35;9.04;89.38
65864;SHT30;52639;51.180;20.460;2024-02-21T13:15:37;8.82;89.61
65864;SHT30;52639;51.180;20.460;2024-02-21T13:19:43;8.61;90.11
65864;SHT30;52639;51.180;20.460;2024-02-21T13:23:45;8.23;90.52
65864;SHT30;52639;51.180;20.460;2024-02-21T13:27:51;8.06;90.94
65864;SHT30;52639;51.180;20.460;2024-02-21T13:31:52;7.86;91.74
65864;SHT30;52639;51.180;20.460;2024-02-21T13:35:54;7.82;91.86
65864;SHT30;52639;51.180;20.460;2024-02-21T13:39:56;7.73;91.81
65864;SHT30;52639;51.180;20.460;2024-02-21T13:43:59;7.63;92.10
65864;SHT30;52639;51.180;20.460;2024-02-21T13:48:02;7.65;92.51
65864;SHT30;52639;51.180;20.460;2024-02-21T13:52:06;7.66;92.19
65864;SHT30;52639;51.180;20.460;2024-02-21T13:56:09;7.55;92.48
65864;SHT30;52639;51.180;20.460;2024-02-21T14:00:13;7.56;92.53
65864;SHT30;52639;51.180;20.460;2024-02-21T14:04:15;7.56;92.55
65864;SHT30;52639;51.180;20.460;2024-02-21T14:08:17;7.52;92.72
65864;SHT30;52639;51.180;20.460;2024-02-21T14:12:19;7.42;92.69
65864;SHT30;52639;51.180;20.460;2024-02-21T14:16:23;7.25;92.75
65864;SHT30;52639;51.180;20.460;2024-02-21T14:20:25;7.23;93.13
65864;SHT30;52639;51.180;20.460;2024-02-21T14:24:34;7.25;93.29
65864;SHT30;52639;51.180;20.460;2024-02-21T14:28:37;7.22;93.23
65864;SHT30;52639;51.180;20.460;2024-02-21T14:32:41;7.21;93.27
65864;SHT30;52639;51.180;20.460;2024-02-21T14:36:45;7.18;93.08
65864;SHT30;52639;51.180;20.460;2024-02-21T14:40:47;7.08;93.27
65864;SHT30;52639;51.180;20.460;2024-02-21T14:44:53;7.09;93.36
65864;SHT30;52639;51.180;20.460;2024-02-21T14:49:05;7.12;93.29
65864;SHT30;52639;51.180;20.460;2024-02-21T14:53:07;7.01;93.30
65864;SHT30;52639;51.180;20.460;2024-02-21T14:57:08;6.94;93.57
65864;SHT30;52639;51.180;20.460;2024-02-21T15:05:38;6.84;93.73
65864;SHT30;52639;51.180;20.460;2024-02-21T15:09:40;6.74;93.65
65864;SHT30;52639;51.180;20.460;2024-02-21T15:13:42;6.76;93.80
65864;SHT30;52639;51.180;20.460;2024-02-21T15:17:44;6.73;93.95
65864;SHT30;52639;51.180;20.460;2024-02-21T15:21:54;6.66;94.17
65864;SHT30;52639;51.180;20.460;2024-02-21T15:25:56;6.57;93.82
65864;SHT30;52639;51.180;20.460;2024-02-21T15:30:07;6.47;93.85
65864;SHT30;52639;51.180;20.460;2024-02-21T15:34:09;6.38;94.17
65864;SHT30;52639;51.180;20.460;2024-02-21T15:38:14;6.34;94.38
65864;SHT30;52639;51.180;20.460;2024-02-21T15:42:16;6.29;94.27
65864;SHT30;52639;51.180;20.460;2024-02-21T15:46:17;6.26;94.33
65864;SHT30;52639;51.180;20.460;2024-02-21T15:50:19;6.19;94.47
65864;SHT30;52639;51.180;20.460;2024-02-21T15:54:23;6.14;94.38
65864;SHT30;52639;51.180;20.460;2024-02-21T15:58:25;6.07;94.39
65864;SHT30;52639;51.180;20.460;2024-02-21T16:02:28;6.01;94.68
65864;SHT30;52639;51.180;20.460;2024-02-21T16:06:30;6.01;94.60
65864;SHT30;52639;51.180;20.460;2024-02-21T16:10:33;5.95;94.70
65864;SHT30;52639;51.180;20.460;2024-02-21T16:14:35;5.92;94.72
65864;SHT30;52639;51.180;20.460;2024-02-21T16:18:38;5.85;94.76
65864;SHT30;52639;51.180;20.460;2024-02-21T16:22:40;5.86;94.72
65864;SHT30;52639;51.180;20.460;2024-02-21T16:26:45;5.83;94.70
65864;SHT30;52639;51.180;20.460;2024-02-21T16:30:47;5.81;94.66
65864;SHT30;52639;51.180;20.460;2024-02-21T16:34:50;5.81;94.79
65864;SHT30;52639;51.180;20.460;2024-02-21T16:38:53;5.81;94.90
65864;SHT30;52639;51.180;20.460;2024-02-21T16:42:56;5.79;94.99
65864;SHT30;52639;51.180;20.460;2024-02-21T16:46:59;5.79;95.07
65864;SHT30;52639;51.180;20.460;2024-02-21T16:51:01;5.78;95.36
65864;SHT30;52639;51.180;20.460;2024-02-21T16:55:05;5.79;95.20
65864;SHT30;52639;51.180;20.460;2024-02-21T16:59:09;5.82;95.06
65864;SHT30;52639;51.180;20.460;2024-02-21T17:03:11;5.82;95.12
65864;SHT30;52639;51.180;20.460;2024-02-21T17:07:14;5.86;95.21
65864;SHT30;52639;51.180;20.460;2024-02-21T17:11:15;5.88;95.08
65864;SHT30;52639;51.180;20.460;2024-02-21T17:15:18;5.86;95.18
65864;SHT30;52639;51.180;20.460;2024-02-21T17:19:20;5.88;95.23
65864;SHT30;52639;51.180;20.460;2024-02-21T17:23:22;5.85;95.14
65864;SHT30;52639;51.180;20.460;2024-02-21T17:27:24;5.82;95.14
65864;SHT30;52639;51.180;20.460;2024-02-21T17:35:32;5.82;95.16
65864;SHT30;52639;51.180;20.460;2024-02-21T17:39:35;5.83;95.33
65864;SHT30;52639;51.180;20.460;2024-02-21T17:43:37;5.85;95.08
65864;SHT30;52639;51.180;20.460;2024-02-21T17:47:39;5.88;95.13
65864;SHT30;52639;51.180;20.460;2024-02-21T17:51:43;5.86;95.30
65864;SHT30;52639;51.180;20.460;2024-02-21T17:55:46;5.83;95.27
65864;SHT30;52639;51.180;20.460;2024-02-21T17:59:48;5.86;95.23
65864;SHT30;52639;51.180;20.460;2024-02-21T18:03:56;5.81;95.15
65864;SHT30;52639;51.180;20.460;2024-02-21T18:07:59;5.83;95.29
65864;SHT30;52639;51.180;20.460;2024-02-21T18:12:01;5.81;95.38
65864;SHT30;52639;51.180;20.460;2024-02-21T18:16:09;5.85;95.25
65864;SHT30;52639;51.180;20.460;2024-02-21T18:20:11;5.83;95.21
65864;SHT30;52639;51.180;20.460;2024-02-21T18:24:14;5.83;95.29
65864;SHT30;52639;51.180;20.460;2024-02-21T18:28:16;5.83;95.49
65864;SHT30;52639;51.180;20.460;2024-02-21T18:32:18;5.85;95.46
65864;SHT30;52639;51.180;20.460;2024-02-21T18:36:20;5.83;95.41
65864;SHT30;52639;51.180;20.460;2024-02-21T18:40:27;5.86;95.37
65864;SHT30;52639;51.180;20.460;2024-02-21T18:44:29;5.86;95.34
65864;SHT30;52639;51.180;20.460;2024-02-21T18:48:31;5.88;95.26
65864;SHT30;52639;51.180;20.460;2024-02-21T18:52:33;5.91;95.22
65864;SHT30;52639;51.180;20.460;2024-02-21T18:56:36;5.89;95.15
65864;SHT30;52639;51.180;20.460;2024-02-21T19:00:38;5.92;95.15
65864;SHT30;52639;51.180;20.460;2024-02-21T19:04:40;5.92;95.10
65864;SHT30;52639;51.180;20.460;2024-02-21T19:08:42;5.89;95.04
65864;SHT30;52639;51.180;20.460;2024-02-21T19:12:45;5.89;95.00
65864;SHT30;52639;51.180;20.460;2024-02-21T19:16:47;5.89;94.98
65864;SHT30;52639;51.180;20.460;2024-02-21T19:20:52;5.86;95.03
65864;SHT30;52639;51.180;20.460;2024-02-21T19:29:22;5.91;94.69
65864;SHT30;52639;51.180;20.460;2024-02-21T19:33:24;5.82;94.42
65864;SHT30;52639;51.180;20.460;2024-02-21T19:37:26;5.75;94.31
65864;SHT30;52639;51.180;20.460;2024-02-21T19:41:28;5.58;94.66
65864;SHT30;52639;51.180;20.460;2024-02-21T19:45:32;5.68;94.87
65864;SHT30;52639;51.180;20.460;2024-02-21T19:53:50;5.71;94.99
65864;SHT30;52639;51.180;20.460;2024-02-21T19:58:06;5.76;94.96
65864;SHT30;52639;51.180;20.460;2024-02-21T20:02:22;5.82;94.92
65864;SHT30;52639;51.180;20.460;2024-02-21T20:06:52;5.83;94.95
65864;SHT30;52639;51.180;20.460;2024-02-21T20:10:54;5.93;94.80
65864;SHT30;52639;51.180;20.460;2024-02-21T20:14:56;5.98;94.40
65864;SHT30;52639;51.180;20.460;2024-02-21T20:19:00;5.95;94.28
65864;SHT30;52639;51.180;20.460;2024-02-21T20:23:01;5.98;94.11
65864;SHT30;52639;51.180;20.460;2024-02-21T20:27:09;5.98;94.13
65864;SHT30;52639;51.180;20.460;2024-02-21T20:31:12;5.98;94.26
65864;SHT30;52639;51.180;20.460;2024-02-21T20:35:21;5.99;94.02
65864;SHT30;52639;51.180;20.460;2024-02-21T20:39:23;6.02;93.97
65864;SHT30;52639;51.180;20.460;2024-02-21T20:43:26;5.99;93.88
65864;SHT30;52639;51.180;20.460;2024-02-21T20:47:27;6.01;93.97
65864;SHT30;52639;51.180;20.460;2024-02-21T20:51:31;5.99;93.78
65864;SHT30;52639;51.180;20.460;2024-02-21T20:55:33;5.98;93.73
65864;SHT30;52639;51.180;20.460;2024-02-21T20:59:34;5.96;93.74
65864;SHT30;52639;51.180;20.460;2024-02-21T21:03:36;6.01;93.75
65864;SHT30;52639;51.180;20.460;2024-02-21T21:07:40;5.98;93.59
65864;SHT30;52639;51.180;20.460;2024-02-21T21:11:42;5.95;93.66
65864;SHT30;52639;51.180;20.460;2024-02-21T21:15:46;5.95;93.44
65864;SHT30;52639;51.180;20.460;2024-02-21T21:19:48;5.89;93.46
65864;SHT30;52639;51.180;20.460;2024-02-21T21:23:54;5.88;93.59
65864;SHT30;52639;51.180;20.460;2024-02-21T21:27:57;5.95;93.62
65864;SHT30;52639;51.180;20.460;2024-02-21T21:32:01;5.93;93.35
65864;SHT30;52639;51.180;20.460;2024-02-21T21:36:03;5.89;93.31
65864;SHT30;52639;51.180;20.460;2024-02-21T21:40:08;5.89;93.33
65864;SHT30;52639;51.180;20.460;2024-02-21T21:44:13;5.88;93.41
65864;SHT30;52639;51.180;20.460;2024-02-21T21:48:15;5.86;93.41
65864;SHT30;52639;51.180;20.460;2024-02-21T21:52:17;5.92;93.42
65864;SHT30;52639;51.180;20.460;2024-02-21T21:56:21;5.92;93.28
65864;SHT30;52639;51.180;20.460;2024-02-21T22:00:22;5.92;93.31
65864;SHT30;52639;51.180;20.460;2024-02-21T22:04:24;5.91;93.36
65864;SHT30;52639;51.180;20.460;2024-02-21T22:08:26;5.88;92.93
65864;SHT30;52639;51.180;20.460;2024-02-21T22:12:29;5.93;92.76
65864;SHT30;52639;51.180;20.460;2024-02-21T22:16:31;5.96;92.68
65864;SHT30;52639;51.180;20.460;2024-02-21T22:20:46;5.93;92.37
65864;SHT30;52639;51.180;20.460;2024-02-21T22:24:48;5.89;92.46
65864;SHT30;52639;51.180;20.460;2024-02-21T22:28:51;5.79;92.34
65864;SHT30;52639;51.180;20.460;2024-02-21T22:33:08;5.62;92.70
65864;SHT30;52639;51.180;20.460;2024-02-21T22:37:10;5.44;92.81
65864;SHT30;52639;51.180;20.460;2024-02-21T22:41:12;5.21;92.50
65864;SHT30;52639;51.180;20.460;2024-02-21T22:45:17;5.05;92.94
65864;SHT30;52639;51.180;20.460;2024-02-21T22:49:19;4.91;93.24
65864;SHT30;52639;51.180;20.460;2024-02-21T22:53:21;4.84;93.38
65864;SHT30;52639;51.180;20.460;2024-02-21T23:01:49;4.63;93.90
65864;SHT30;52639;51.180;20.460;2024-02-21T23:10:56;4.42;94.18
65864;SHT30;52639;51.180;20.460;2024-02-21T23:15:00;4.38;94.42
65864;SHT30;52639;51.180;20.460;2024-02-21T23:19:11;4.25;94.15
65864;SHT30;52639;51.180;20.460;2024-02-21T23:23:13;4.28;94.50
65864;SHT30;52639;51.180;20.460;2024-02-21T23:27:14;4.28;95.03
65864;SHT30;52639;51.180;20.460;2024-02-21T23:31:16;4.52;95.17
65864;SHT30;52639;51.180;20.460;2024-02-21T23:35:20;4.67;95.16
65864;SHT30;52639;51.180;20.460;2024-02-21T23:39:21;4.77;94.99
65864;SHT30;52639;51.180;20.460;2024-02-21T23:43:23;4.88;94.88
65864;SHT30;52639;51.180;20.460;2024-02-21T23:47:25;4.98;94.66
65864;SHT30;52639;51.180;20.460;2024-02-21T23:51:28;5.00;94.08
65864;SHT30;52639;51.180;20.460;2024-02-21T23:55:39;4.95;93.78
65864;SHT30;52639;51.180;20.460;2024-02-21T23:59:41;4.95;93.75
